createdAt,value
2023-03-26T00:01:29.839Z,98275.80
2023-03-26T00:06:39.162Z,98274.58
2023-03-26T00:11:48.329Z,98275.23
2023-03-26T00:16:51.449Z,98268.14
2023-03-26T00:21:54.495Z,98268.39
2023-03-26T00:26:57.513Z,98266.30
2023-03-26T00:32:00.526Z,98259.25
2023-03-26T00:37:03.550Z,98256.50
2023-03-26T00:42:06.986Z,98255.37
2023-03-26T00:47:09.973Z,98252.97
2023-03-26T00:52:14.301Z,98254.90
2023-03-26T00:57:25.803Z,98248.06
2023-03-26T01:02:36.026Z,98255.73
2023-03-26T01:07:39.101Z,98253.67
2023-03-26T01:12:42.333Z,98254.55
2023-03-26T01:17:45.490Z,98255.40
2023-03-26T01:22:52.431Z,98251.20
2023-03-26T01:27:56.980Z,98243.77
2023-03-26T01:33:22.101Z,98238.79
2023-03-26T01:38:53.079Z,98236.23
2023-03-26T01:44:36.399Z,98231.94
2023-03-26T01:49:39.420Z,98232.12
2023-03-26T01:54:43.143Z,98230.11
2023-03-26T01:59:59.767Z,98229.34
2023-03-26T02:05:28.677Z,98223.13
2023-03-26T02:10:47.538Z,98222.39
2023-03-26T02:16:03.542Z,98220.98
2023-03-26T02:21:20.510Z,98216.09
2023-03-26T02:26:24.781Z,98222.57
2023-03-26T02:31:28.409Z,98229.00
2023-03-26T02:36:31.641Z,98222.30
2023-03-26T02:41:34.761Z,98219.02
2023-03-26T02:46:37.736Z,98215.67
2023-03-26T02:51:40.866Z,98219.23
2023-03-26T02:56:43.876Z,98222.95
2023-03-26T03:01:46.828Z,98224.89
2023-03-26T03:06:53.129Z,98225.63
2023-03-26T03:11:56.356Z,98224.75
2023-03-26T03:16:59.337Z,98225.27
2023-03-26T03:22:02.391Z,98232.52
2023-03-26T03:27:05.682Z,98235.11
2023-03-26T03:32:08.686Z,98242.11
2023-03-26T03:37:12.124Z,98241.54
2023-03-26T03:42:15.078Z,98237.54
2023-03-26T03:47:18.020Z,98237.40
2023-03-26T03:52:21.022Z,98237.64
2023-03-26T03:57:24.279Z,98239.10
2023-03-26T04:02:30.467Z,98237.42
2023-03-26T04:07:33.672Z,98236.71
2023-03-26T04:12:36.611Z,98237.73
2023-03-26T04:17:42.763Z,98232.34
2023-03-26T04:22:45.952Z,98227.06
2023-03-26T04:27:49.166Z,98227.98
2023-03-26T04:32:52.215Z,98220.05
2023-03-26T04:37:55.228Z,98212.19
2023-03-26T04:43:00.031Z,98210.10
2023-03-26T04:48:02.997Z,98209.95
2023-03-26T04:53:05.984Z,98206.73
2023-03-26T04:58:09.568Z,98204.70
2023-03-26T05:03:13.190Z,98210.31
2023-03-26T05:08:16.182Z,98209.30
2023-03-26T05:13:19.189Z,98213.68
2023-03-26T05:18:22.180Z,98213.30
2023-03-26T05:23:25.152Z,98210.64
2023-03-26T05:28:28.368Z,98207.46
2023-03-26T05:33:31.400Z,98211.73
2023-03-26T05:38:34.492Z,98209.90
2023-03-26T05:43:37.497Z,98214.43
2023-03-26T05:48:40.577Z,98217.92
2023-03-26T05:53:43.784Z,98224.94
2023-03-26T05:58:47.673Z,98226.42
2023-03-26T06:03:51.660Z,98225.80
2023-03-26T06:09:01.831Z,98225.11
2023-03-26T06:14:07.138Z,98233.65
2023-03-26T06:19:10.153Z,98232.90
2023-03-26T06:24:13.180Z,98236.35
2023-03-26T06:29:16.359Z,98243.79
2023-03-26T06:34:19.517Z,98245.67
2023-03-26T06:39:22.552Z,98235.31
2023-03-26T06:44:25.762Z,98235.66
2023-03-26T06:49:28.932Z,98232.95
2023-03-26T06:54:32.097Z,98226.46
2023-03-26T06:59:35.109Z,98223.82
2023-03-26T07:04:38.297Z,98223.58
2023-03-26T07:09:41.232Z,98221.58
2023-03-26T07:14:44.347Z,98221.70
2023-03-26T07:19:47.274Z,98218.81
2023-03-26T07:24:52.114Z,98218.11
2023-03-26T07:30:32.725Z,98217.35
2023-03-26T07:36:04.577Z,98218.60
2023-03-26T07:41:22.456Z,98216.98
2023-03-26T07:46:41.641Z,98209.30
2023-03-26T07:51:45.021Z,98203.52
2023-03-26T07:57:08.222Z,98201.48
2023-03-26T08:02:31.667Z,98202.95
2023-03-26T08:07:56.444Z,98200.96
2023-03-26T08:13:17.874Z,98200.66
2023-03-26T08:18:54.362Z,98193.59
2023-03-26T08:24:28.370Z,98187.06
2023-03-26T08:29:45.414Z,98192.08
2023-03-26T08:34:48.478Z,98187.35
2023-03-26T08:39:51.680Z,98186.75
2023-03-26T08:45:31.561Z,98186.69
2023-03-26T08:51:28.679Z,98189.40
2023-03-26T08:56:52.818Z,98188.89
2023-03-26T09:01:55.798Z,98187.89
2023-03-26T09:07:29.370Z,98184.89
2023-03-26T09:13:33.694Z,98185.98
2023-03-26T09:19:14.811Z,98178.84
2023-03-26T09:24:54.620Z,98175.50
2023-03-26T09:30:35.228Z,98176.71
2023-03-26T09:35:53.414Z,98176.95
2023-03-26T09:41:13.578Z,98178.09
2023-03-26T09:46:39.003Z,98180.98
2023-03-26T09:52:27.289Z,98176.43
2023-03-26T09:57:53.974Z,98166.74
2023-03-26T10:03:28.070Z,98162.88
2023-03-26T10:09:11.684Z,98160.02
2023-03-26T10:14:38.645Z,98153.83
2023-03-26T10:19:47.537Z,98173.77
2023-03-26T10:25:31.142Z,98199.86
2023-03-26T10:30:39.486Z,98200.42
2023-03-26T10:36:12.452Z,98201.38
2023-03-26T10:41:42.620Z,98192.20
2023-03-26T10:47:43.928Z,98183.44
2023-03-26T10:52:57.530Z,98177.48
2023-03-26T10:58:23.726Z,98169.52
2023-03-26T11:03:52.196Z,98164.91
2023-03-26T11:09:03.014Z,98153.52
2023-03-26T11:14:35.646Z,98145.24
2023-03-26T11:19:41.062Z,98129.29
2023-03-26T11:25:05.651Z,98123.57
2023-03-26T11:30:28.764Z,98121.67
2023-03-26T11:35:40.563Z,98120.45
2023-03-26T11:40:50.885Z,98111.95
2023-03-26T11:45:54.224Z,98121.77
2023-03-26T11:51:08.178Z,98144.63
2023-03-26T11:56:38.076Z,98156.16
2023-03-26T12:01:56.605Z,98165.79
2023-03-26T12:07:21.238Z,98167.56
2023-03-26T12:12:33.115Z,98160.09
2023-03-26T12:17:40.241Z,98151.63
2023-03-26T12:22:44.320Z,98149.30
2023-03-26T12:27:50.972Z,98151.05
2023-03-26T12:33:26.251Z,98151.51
2023-03-26T12:38:33.163Z,98152.30
2023-03-26T12:44:56.032Z,98147.05
2023-03-26T12:49:08.974Z,98145.16
2023-03-26T12:54:51.372Z,98140.75
2023-03-26T13:00:29.169Z,98138.61
2023-03-26T13:06:23.318Z,98138.20
2023-03-26T13:12:15.614Z,98137.20
2023-03-26T13:17:33.667Z,98133.84
2023-03-26T13:23:08.832Z,98129.05
2023-03-26T13:28:47.155Z,98127.45
2023-03-26T13:34:13.556Z,98124.44
2023-03-26T13:39:33.955Z,98118.94
2023-03-26T13:45:14.490Z,98114.94
2023-03-26T13:50:37.434Z,98111.95
2023-03-26T13:55:53.522Z,98110.26
2023-03-26T14:01:18.711Z,98107.31
2023-03-26T14:07:01.647Z,98097.09
2023-03-26T14:12:22.169Z,98093.90
2023-03-26T14:17:39.040Z,98088.70
2023-03-26T14:23:25.016Z,98089.55
2023-03-26T14:28:58.753Z,98083.22
2023-03-26T14:34:54.194Z,98081.58
2023-03-26T14:40:28.989Z,98076.39
2023-03-26T14:46:07.723Z,98072.52
2023-03-26T14:51:55.871Z,98074.91
2023-03-26T14:57:26.498Z,98075.88
2023-03-26T15:03:20.625Z,98080.54
2023-03-26T15:09:08.026Z,98077.05
2023-03-26T15:14:19.951Z,98073.51
2023-03-26T15:19:55.128Z,98078.11
2023-03-26T15:25:16.527Z,98080.27
2023-03-26T15:30:57.988Z,98071.02
2023-03-26T15:36:41.378Z,98080.45
2023-03-26T15:42:12.021Z,98074.61
2023-03-26T15:47:50.043Z,98079.29
2023-03-26T15:53:19.604Z,98077.84
2023-03-26T15:58:44.368Z,98077.30
2023-03-26T16:04:23.072Z,98081.02
2023-03-26T16:09:42.120Z,98083.96
2023-03-26T16:15:21.297Z,98086.38
2023-03-26T16:20:35.963Z,98086.38
2023-03-26T16:26:40.093Z,98094.66
2023-03-26T16:32:10.944Z,98102.06
2023-03-26T16:37:50.113Z,98105.58
2023-03-26T16:43:24.364Z,98110.97
2023-03-26T16:48:36.964Z,98116.63
2023-03-26T16:54:00.699Z,98119.42
2023-03-26T17:00:04.952Z,98128.41
2023-03-26T17:05:35.138Z,98131.36
2023-03-26T17:11:22.860Z,98132.15
2023-03-26T17:16:33.406Z,98122.02
2023-03-26T17:21:55.620Z,98119.48
2023-03-26T17:27:01.060Z,98126.23
2023-03-26T17:32:14.985Z,98131.22
2023-03-26T17:37:23.944Z,98130.48
2023-03-26T17:42:35.955Z,98133.04
2023-03-26T17:47:47.944Z,98135.79
2023-03-26T17:53:19.984Z,98138.99
2023-03-26T17:58:29.178Z,98142.27
2023-03-26T18:03:54.040Z,98145.81
2023-03-26T18:09:52.857Z,98153.86
2023-03-26T18:15:07.220Z,98157.25
2023-03-26T18:20:25.211Z,98138.06
2023-03-26T18:25:34.358Z,98120.83
2023-03-26T18:30:48.103Z,98121.00
2023-03-26T18:35:55.616Z,98109.33
2023-03-26T18:40:59.084Z,98107.33
2023-03-26T18:46:03.740Z,98104.60
2023-03-26T18:51:07.887Z,98095.70
2023-03-26T18:56:43.231Z,98097.16
2023-03-26T19:01:48.723Z,98090.32
2023-03-26T19:06:55.221Z,98088.92
2023-03-26T19:12:06.072Z,98092.31
2023-03-26T19:17:09.180Z,98082.31
2023-03-26T19:22:12.431Z,98073.80
2023-03-26T19:27:16.808Z,98077.20
2023-03-26T19:32:32.478Z,98080.46
2023-03-26T19:37:50.291Z,98084.51
2023-03-26T19:42:53.326Z,98077.66
2023-03-26T19:48:07.745Z,98075.16
2023-03-26T19:53:32.626Z,98070.13
2023-03-26T19:58:36.396Z,98068.74
2023-03-26T20:03:41.648Z,98061.58
2023-03-26T20:08:45.031Z,98063.67
2023-03-26T20:13:49.336Z,98061.80
2023-03-26T20:18:52.517Z,98064.33
2023-03-26T20:23:55.861Z,98060.65
2023-03-26T20:28:59.006Z,98063.73
2023-03-26T20:34:02.230Z,98057.54
2023-03-26T20:39:09.675Z,98056.31
2023-03-26T20:44:15.766Z,98054.84
2023-03-26T20:49:19.310Z,98058.20
2023-03-26T20:54:25.323Z,98063.08
2023-03-26T20:59:28.981Z,98051.36
2023-03-26T21:04:32.282Z,98039.52
2023-03-26T21:09:35.862Z,98036.08
2023-03-26T21:14:42.107Z,98027.88
2023-03-26T21:19:47.249Z,98023.36
2023-03-26T21:25:03.135Z,98013.94
2023-03-26T21:30:14.527Z,98006.04
2023-03-26T21:35:18.342Z,98003.70
2023-03-26T21:40:21.578Z,98002.82
2023-03-26T21:45:25.079Z,98005.38
2023-03-26T21:50:28.601Z,98009.77
2023-03-26T21:55:42.032Z,97996.91
2023-03-26T22:01:03.100Z,97991.93
2023-03-26T22:06:37.628Z,97988.79
2023-03-26T22:11:42.167Z,97982.42
2023-03-26T22:16:45.254Z,97990.77
2023-03-26T22:21:48.209Z,97997.27
2023-03-26T22:26:51.175Z,98001.59
2023-03-26T22:31:54.291Z,97997.95
2023-03-26T22:36:57.400Z,97989.48
2023-03-26T22:42:02.618Z,97979.55
2023-03-26T22:47:05.579Z,97976.84
2023-03-26T22:52:08.627Z,97975.08
2023-03-26T22:57:12.087Z,97964.42
2023-03-26T23:02:16.720Z,97967.90
2023-03-26T23:07:19.755Z,97972.68
2023-03-26T23:12:22.986Z,97977.94
2023-03-26T23:17:25.971Z,97981.95
2023-03-26T23:22:28.974Z,97984.48
2023-03-26T23:27:33.042Z,97992.75
2023-03-26T23:32:38.086Z,97993.02
2023-03-26T23:37:42.638Z,97995.52
2023-03-26T23:42:47.516Z,97996.13
2023-03-26T23:47:50.516Z,97993.98
2023-03-26T23:52:53.704Z,97989.56
2023-03-26T23:57:56.613Z,97990.14
